VNKT/KTM METAR and TAF weather

Enter ICAO airport designator
Station Type Date Time Source
VNKT METAR 2021/05/07 00:20 UTC NOAA

VNKT 070020Z 04003KT 4000 BR FEW015 SCT030 BKN100 17/17 Q1018 NOSIG


Station Type Date Time Source
VNKT Decoded METAR 2021/05/07 00:20 UTC NOAA

Kathmandu Airport, Nepal (VNKT) 27-42N 085-22E 1337M
May 06, 2021 - 08:20 PM EDT / 2021.05.07 0020 UTC
Wind: from the NE (040 degrees) at 3 MPH (3 KT):0
Visibility: 2 mile(s):0
Sky conditions: mostly cloudy
Weather: mist
Temperature: 62 F (17 C)
Dew Point: 62 F (17 C)
Relative Humidity: 100%
Pressure (altimeter): 30.06 in. Hg (1018 hPa)
ob: VNKT 070020Z 04003KT 4000 BR FEW015 SCT030 BKN100 17/17 Q1018 NOSIG
cycle: 0

Station Type Date Time Source
VNKT TAF 2021/05/06 18:42 UTC NOAA

TAF VNKT 061700Z 0618/0718 10004KT 6000 FEW015 SCT030 BKN100 PROB40 0619/0623 VRB06KT 4000 -TSRA FEW025CB
BECMG 0700/0702 VRB02KT 6000 FEW015 SCT030 BKN100
BECMG 0706/0707 22007KT 7000 FEW020 SCT030 BKN100 PROB40 0706/0712 VRB10KT 4000 -TSRA FEW025CB

Example: see airport list